sensor_id;sensor_type;location;lat;lon;timestamp;P1;durP1;ratioP1;P2;durP2;ratioP2
74650;SDS011;63169;46.042;14.592;2023-11-18T00:02:19;3.10;;;2.70;;
74650;SDS011;63169;46.042;14.592;2023-11-18T00:04:44;3.08;;;2.45;;
74650;SDS011;63169;46.042;14.592;2023-11-18T00:07:09;2.38;;;2.28;;
74650;SDS011;63169;46.042;14.592;2023-11-18T00:09:35;3.55;;;0.73;;
74650;SDS011;63169;46.042;14.592;2023-11-18T00:12:01;2.03;;;0.40;;
74650;SDS011;63169;46.042;14.592;2023-11-18T00:14:29;1.90;;;0.43;;
74650;SDS011;63169;46.042;14.592;2023-11-18T00:16:54;3.78;;;3.50;;
74650;SDS011;63169;46.042;14.592;2023-11-18T00:19:20;1.35;;;0.98;;
74650;SDS011;63169;46.042;14.592;2023-11-18T00:21:45;5.90;;;3.80;;
74650;SDS011;63169;46.042;14.592;2023-11-18T00:24:10;3.63;;;2.47;;
74650;SDS011;63169;46.042;14.592;2023-11-18T00:26:36;2.50;;;2.30;;
74650;SDS011;63169;46.042;14.592;2023-11-18T00:29:01;1.35;;;0.55;;
74650;SDS011;63169;46.042;14.592;2023-11-18T00:31:27;2.42;;;2.22;;
74650;SDS011;63169;46.042;14.592;2023-11-18T00:33:52;3.15;;;2.65;;
74650;SDS011;63169;46.042;14.592;2023-11-18T00:36:18;3.28;;;1.67;;
74650;SDS011;63169;46.042;14.592;2023-11-18T00:38:44;2.78;;;2.40;;
74650;SDS011;63169;46.042;14.592;2023-11-18T00:41:09;2.85;;;2.65;;
74650;SDS011;63169;46.042;14.592;2023-11-18T00:43:34;2.05;;;0.82;;
74650;SDS011;63169;46.042;14.592;2023-11-18T00:46:00;1.75;;;0.65;;
74650;SDS011;63169;46.042;14.592;2023-11-18T00:48:26;1.40;;;0.47;;
74650;SDS011;63169;46.042;14.592;2023-11-18T00:50:52;3.88;;;3.67;;
74650;SDS011;63169;46.042;14.592;2023-11-18T00:53:17;3.53;;;3.22;;
74650;SDS011;63169;46.042;14.592;2023-11-18T00:55:43;4.10;;;3.53;;
74650;SDS011;63169;46.042;14.592;2023-11-18T00:58:09;4.78;;;4.35;;
74650;SDS011;63169;46.042;14.592;2023-11-18T01:00:34;4.55;;;1.48;;
74650;SDS011;63169;46.042;14.592;2023-11-18T01:03:01;4.65;;;4.13;;
74650;SDS011;63169;46.042;14.592;2023-11-18T01:05:27;8.80;;;3.88;;
74650;SDS011;63169;46.042;14.592;2023-11-18T01:07:52;4.60;;;1.77;;
74650;SDS011;63169;46.042;14.592;2023-11-18T01:10:18;4.57;;;4.13;;
74650;SDS011;63169;46.042;14.592;2023-11-18T01:12:44;3.25;;;1.20;;
74650;SDS011;63169;46.042;14.592;2023-11-18T01:15:10;4.18;;;1.42;;
74650;SDS011;63169;46.042;14.592;2023-11-18T01:17:35;6.10;;;4.03;;
74650;SDS011;63169;46.042;14.592;2023-11-18T01:20:01;5.22;;;4.10;;
74650;SDS011;63169;46.042;14.592;2023-11-18T01:22:33;8.93;;;1.83;;
74650;SDS011;63169;46.042;14.592;2023-11-18T01:24:59;3.50;;;1.67;;
74650;SDS011;63169;46.042;14.592;2023-11-18T01:27:25;2.40;;;1.30;;
74650;SDS011;63169;46.042;14.592;2023-11-18T01:29:50;3.97;;;3.50;;
74650;SDS011;63169;46.042;14.592;2023-11-18T01:32:16;2.30;;;0.95;;
74650;SDS011;63169;46.042;14.592;2023-11-18T01:34:42;3.22;;;1.10;;
74650;SDS011;63169;46.042;14.592;2023-11-18T01:37:09;3.53;;;2.20;;
74650;SDS011;63169;46.042;14.592;2023-11-18T01:39:35;3.20;;;1.23;;
74650;SDS011;63169;46.042;14.592;2023-11-18T01:42:01;3.95;;;3.75;;
74650;SDS011;63169;46.042;14.592;2023-11-18T01:44:28;2.40;;;1.02;;
74650;SDS011;63169;46.042;14.592;2023-11-18T01:46:57;5.35;;;1.00;;
74650;SDS011;63169;46.042;14.592;2023-11-18T01:49:23;4.18;;;1.05;;
74650;SDS011;63169;46.042;14.592;2023-11-18T01:51:49;3.38;;;3.08;;
74650;SDS011;63169;46.042;14.592;2023-11-18T01:54:16;3.20;;;1.23;;
74650;SDS011;63169;46.042;14.592;2023-11-18T01:56:44;4.72;;;1.25;;
74650;SDS011;63169;46.042;14.592;2023-11-18T01:59:12;3.45;;;1.15;;
74650;SDS011;63169;46.042;14.592;2023-11-18T02:01:44;3.53;;;0.93;;
74650;SDS011;63169;46.042;14.592;2023-11-18T02:04:13;3.25;;;1.08;;
74650;SDS011;63169;46.042;14.592;2023-11-18T02:06:39;3.15;;;2.83;;
74650;SDS011;63169;46.042;14.592;2023-11-18T02:09:04;6.35;;;3.03;;
74650;SDS011;63169;46.042;14.592;2023-11-18T02:11:31;4.50;;;2.05;;
74650;SDS011;63169;46.042;14.592;2023-11-18T02:14:06;4.28;;;4.03;;
74650;SDS011;63169;46.042;14.592;2023-11-18T02:16:36;4.95;;;3.28;;
74650;SDS011;63169;46.042;14.592;2023-11-18T02:21:30;1.40;;;0.73;;
74650;SDS011;63169;46.042;14.592;2023-11-18T02:23:58;1.75;;;1.50;;
74650;SDS011;63169;46.042;14.592;2023-11-18T02:26:24;2.38;;;0.47;;
74650;SDS011;63169;46.042;14.592;2023-11-18T02:28:50;2.45;;;2.13;;
74650;SDS011;63169;46.042;14.592;2023-11-18T02:31:20;2.53;;;0.75;;
74650;SDS011;63169;46.042;14.592;2023-11-18T02:34:12;1.70;;;0.63;;
74650;SDS011;63169;46.042;14.592;2023-11-18T02:36:44;3.40;;;2.35;;
74650;SDS011;63169;46.042;14.592;2023-11-18T02:39:21;2.85;;;1.00;;
74650;SDS011;63169;46.042;14.592;2023-11-18T02:41:48;2.75;;;1.05;;
74650;SDS011;63169;46.042;14.592;2023-11-18T02:44:17;1.40;;;0.50;;
74650;SDS011;63169;46.042;14.592;2023-11-18T02:46:45;1.27;;;0.50;;
74650;SDS011;63169;46.042;14.592;2023-11-18T02:49:10;2.60;;;0.52;;
74650;SDS011;63169;46.042;14.592;2023-11-18T02:51:37;1.38;;;0.20;;
74650;SDS011;63169;46.042;14.592;2023-11-18T02:54:06;6.18;;;0.95;;
74650;SDS011;63169;46.042;14.592;2023-11-18T02:56:35;3.15;;;2.92;;
74650;SDS011;63169;46.042;14.592;2023-11-18T02:59:01;2.28;;;1.65;;
74650;SDS011;63169;46.042;14.592;2023-11-18T03:01:26;2.45;;;0.40;;
74650;SDS011;63169;46.042;14.592;2023-11-18T03:03:52;2.85;;;0.90;;
74650;SDS011;63169;46.042;14.592;2023-11-18T03:06:18;1.58;;;0.75;;
74650;SDS011;63169;46.042;14.592;2023-11-18T03:08:43;2.15;;;0.40;;
74650;SDS011;63169;46.042;14.592;2023-11-18T03:11:09;1.25;;;0.57;;
74650;SDS011;63169;46.042;14.592;2023-11-18T03:13:34;1.67;;;0.45;;
74650;SDS011;63169;46.042;14.592;2023-11-18T03:16:01;1.48;;;0.68;;
74650;SDS011;63169;46.042;14.592;2023-11-18T03:18:27;2.13;;;0.50;;
74650;SDS011;63169;46.042;14.592;2023-11-18T03:20:54;4.57;;;0.82;;
74650;SDS011;63169;46.042;14.592;2023-11-18T03:23:20;1.42;;;0.60;;
74650;SDS011;63169;46.042;14.592;2023-11-18T03:25:46;1.60;;;0.32;;
74650;SDS011;63169;46.042;14.592;2023-11-18T03:28:11;1.90;;;0.93;;
74650;SDS011;63169;46.042;14.592;2023-11-18T03:30:37;3.60;;;3.40;;
74650;SDS011;63169;46.042;14.592;2023-11-18T03:33:02;2.85;;;0.90;;
74650;SDS011;63169;46.042;14.592;2023-11-18T03:35:29;2.20;;;0.80;;
74650;SDS011;63169;46.042;14.592;2023-11-18T03:37:55;3.10;;;2.90;;
74650;SDS011;63169;46.042;14.592;2023-11-18T03:40:20;3.25;;;0.40;;
74650;SDS011;63169;46.042;14.592;2023-11-18T03:42:46;2.03;;;0.80;;
74650;SDS011;63169;46.042;14.592;2023-11-18T03:45:11;2.42;;;0.82;;
74650;SDS011;63169;46.042;14.592;2023-11-18T03:47:37;2.20;;;0.75;;
74650;SDS011;63169;46.042;14.592;2023-11-18T03:50:03;1.45;;;0.93;;
74650;SDS011;63169;46.042;14.592;2023-11-18T03:52:28;4.63;;;2.35;;
74650;SDS011;63169;46.042;14.592;2023-11-18T03:54:54;2.58;;;0.73;;
74650;SDS011;63169;46.042;14.592;2023-11-18T03:57:22;2.67;;;0.95;;
74650;SDS011;63169;46.042;14.592;2023-11-18T03:59:48;1.42;;;0.82;;
74650;SDS011;63169;46.042;14.592;2023-11-18T04:02:13;4.28;;;3.50;;
74650;SDS011;63169;46.042;14.592;2023-11-18T04:04:39;2.85;;;2.65;;
74650;SDS011;63169;46.042;14.592;2023-11-18T04:07:04;2.50;;;0.88;;
74650;SDS011;63169;46.042;14.592;2023-11-18T04:09:31;3.40;;;1.92;;
74650;SDS011;63169;46.042;14.592;2023-11-18T04:11:57;3.33;;;0.90;;
74650;SDS011;63169;46.042;14.592;2023-11-18T04:14:23;3.33;;;1.63;;
74650;SDS011;63169;46.042;14.592;2023-11-18T04:16:50;2.75;;;2.55;;
74650;SDS011;63169;46.042;14.592;2023-11-18T04:19:16;3.08;;;2.78;;
74650;SDS011;63169;46.042;14.592;2023-11-18T04:21:42;2.55;;;1.02;;
74650;SDS011;63169;46.042;14.592;2023-11-18T04:24:08;4.70;;;0.80;;
74650;SDS011;63169;46.042;14.592;2023-11-18T04:26:34;3.13;;;1.10;;
74650;SDS011;63169;46.042;14.592;2023-11-18T04:29:00;2.42;;;1.33;;
74650;SDS011;63169;46.042;14.592;2023-11-18T04:31:25;2.30;;;0.98;;
74650;SDS011;63169;46.042;14.592;2023-11-18T04:33:50;4.63;;;1.20;;
74650;SDS011;63169;46.042;14.592;2023-11-18T04:36:16;2.30;;;0.80;;
74650;SDS011;63169;46.042;14.592;2023-11-18T04:38:42;2.35;;;0.47;;
74650;SDS011;63169;46.042;14.592;2023-11-18T04:41:08;3.33;;;3.13;;
74650;SDS011;63169;46.042;14.592;2023-11-18T04:43:34;3.22;;;1.10;;
74650;SDS011;63169;46.042;14.592;2023-11-18T04:45:59;4.13;;;3.83;;
74650;SDS011;63169;46.042;14.592;2023-11-18T04:48:25;3.08;;;2.83;;
74650;SDS011;63169;46.042;14.592;2023-11-18T04:50:50;5.47;;;3.83;;
74650;SDS011;63169;46.042;14.592;2023-11-18T04:53:16;4.85;;;3.95;;
74650;SDS011;63169;46.042;14.592;2023-11-18T04:55:41;4.10;;;0.80;;
74650;SDS011;63169;46.042;14.592;2023-11-18T04:58:07;2.40;;;1.33;;
74650;SDS011;63169;46.042;14.592;2023-11-18T05:00:37;2.35;;;2.15;;
74650;SDS011;63169;46.042;14.592;2023-11-18T05:03:06;4.55;;;0.75;;
74650;SDS011;63169;46.042;14.592;2023-11-18T05:05:37;3.35;;;1.05;;
74650;SDS011;63169;46.042;14.592;2023-11-18T05:08:06;3.10;;;2.90;;
74650;SDS011;63169;46.042;14.592;2023-11-18T05:10:34;4.22;;;0.98;;
74650;SDS011;63169;46.042;14.592;2023-11-18T05:13:01;2.78;;;2.55;;
74650;SDS011;63169;46.042;14.592;2023-11-18T05:15:27;2.80;;;1.20;;
74650;SDS011;63169;46.042;14.592;2023-11-18T05:17:54;5.70;;;1.63;;
74650;SDS011;63169;46.042;14.592;2023-11-18T05:20:20;1.92;;;0.95;;
74650;SDS011;63169;46.042;14.592;2023-11-18T05:22:46;5.25;;;0.77;;
74650;SDS011;63169;46.042;14.592;2023-11-18T05:25:11;4.53;;;3.95;;
74650;SDS011;63169;46.042;14.592;2023-11-18T05:27:37;2.38;;;1.27;;
74650;SDS011;63169;46.042;14.592;2023-11-18T05:30:05;6.30;;;1.85;;
74650;SDS011;63169;46.042;14.592;2023-11-18T05:32:32;5.03;;;2.85;;
74650;SDS011;63169;46.042;14.592;2023-11-18T05:34:58;6.55;;;3.33;;
74650;SDS011;63169;46.042;14.592;2023-11-18T05:37:24;4.07;;;1.35;;
74650;SDS011;63169;46.042;14.592;2023-11-18T05:39:49;3.67;;;1.55;;
74650;SDS011;63169;46.042;14.592;2023-11-18T05:42:24;7.80;;;4.25;;
74650;SDS011;63169;46.042;14.592;2023-11-18T05:44:52;5.38;;;1.98;;
74650;SDS011;63169;46.042;14.592;2023-11-18T05:47:24;4.90;;;1.10;;
74650;SDS011;63169;46.042;14.592;2023-11-18T05:49:53;2.40;;;1.17;;
74650;SDS011;63169;46.042;14.592;2023-11-18T05:52:19;3.00;;;2.67;;
74650;SDS011;63169;46.042;14.592;2023-11-18T05:54:45;3.65;;;1.42;;
74650;SDS011;63169;46.042;14.592;2023-11-18T05:59:38;2.38;;;0.95;;
74650;SDS011;63169;46.042;14.592;2023-11-18T06:02:03;3.88;;;0.85;;
74650;SDS011;63169;46.042;14.592;2023-11-18T06:04:29;2.22;;;0.93;;
74650;SDS011;63169;46.042;14.592;2023-11-18T06:06:56;4.90;;;0.85;;
74650;SDS011;63169;46.042;14.592;2023-11-18T06:09:21;1.83;;;0.88;;
74650;SDS011;63169;46.042;14.592;2023-11-18T06:11:50;2.17;;;1.02;;
74650;SDS011;63169;46.042;14.592;2023-11-18T06:14:16;1.92;;;0.90;;
74650;SDS011;63169;46.042;14.592;2023-11-18T06:16:42;2.28;;;1.13;;
74650;SDS011;63169;46.042;14.592;2023-11-18T06:19:07;4.88;;;1.17;;
74650;SDS011;63169;46.042;14.592;2023-11-18T06:21:33;2.47;;;1.27;;
74650;SDS011;63169;46.042;14.592;2023-11-18T06:23:59;5.45;;;2.90;;
74650;SDS011;63169;46.042;14.592;2023-11-18T06:26:25;2.80;;;1.08;;
74650;SDS011;63169;46.042;14.592;2023-11-18T06:28:54;6.28;;;1.50;;
74650;SDS011;63169;46.042;14.592;2023-11-18T06:31:20;1.63;;;0.85;;
74650;SDS011;63169;46.042;14.592;2023-11-18T06:33:46;4.00;;;1.42;;
74650;SDS011;63169;46.042;14.592;2023-11-18T06:38:47;4.07;;;1.25;;
74650;SDS011;63169;46.042;14.592;2023-11-18T06:41:17;5.65;;;4.13;;
74650;SDS011;63169;46.042;14.592;2023-11-18T06:43:44;5.53;;;2.38;;
74650;SDS011;63169;46.042;14.592;2023-11-18T06:46:27;10.20;;;4.95;;
74650;SDS011;63169;46.042;14.592;2023-11-18T06:48:59;4.97;;;4.30;;
74650;SDS011;63169;46.042;14.592;2023-11-18T06:51:28;12.25;;;2.30;;
74650;SDS011;63169;46.042;14.592;2023-11-18T06:53:55;4.22;;;2.13;;
74650;SDS011;63169;46.042;14.592;2023-11-18T06:56:20;8.82;;;1.70;;
74650;SDS011;63169;46.042;14.592;2023-11-18T06:58:46;12.98;;;5.72;;
74650;SDS011;63169;46.042;14.592;2023-11-18T07:01:15;7.68;;;3.17;;
74650;SDS011;63169;46.042;14.592;2023-11-18T07:03:41;5.93;;;5.32;;
74650;SDS011;63169;46.042;14.592;2023-11-18T07:06:10;10.02;;;3.95;;
74650;SDS011;63169;46.042;14.592;2023-11-18T07:08:39;7.47;;;5.75;;
74650;SDS011;63169;46.042;14.592;2023-11-18T07:11:05;3.75;;;1.85;;
74650;SDS011;63169;46.042;14.592;2023-11-18T07:13:31;4.63;;;1.90;;
74650;SDS011;63169;46.042;14.592;2023-11-18T07:15:59;7.38;;;2.83;;
74650;SDS011;63169;46.042;14.592;2023-11-18T07:18:28;4.40;;;2.40;;
74650;SDS011;63169;46.042;14.592;2023-11-18T07:20:55;10.57;;;5.18;;
74650;SDS011;63169;46.042;14.592;2023-11-18T07:23:21;8.73;;;6.07;;
74650;SDS011;63169;46.042;14.592;2023-11-18T07:25:46;9.35;;;4.45;;
74650;SDS011;63169;46.042;14.592;2023-11-18T07:28:13;8.05;;;5.82;;
74650;SDS011;63169;46.042;14.592;2023-11-18T07:30:42;8.00;;;7.20;;
74650;SDS011;63169;46.042;14.592;2023-11-18T07:33:13;6.07;;;5.47;;
74650;SDS011;63169;46.042;14.592;2023-11-18T07:35:44;6.57;;;5.97;;
74650;SDS011;63169;46.042;14.592;2023-11-18T07:38:14;18.55;;;7.90;;
74650;SDS011;63169;46.042;14.592;2023-11-18T07:40:40;8.52;;;6.18;;
74650;SDS011;63169;46.042;14.592;2023-11-18T07:43:10;11.60;;;5.90;;
74650;SDS011;63169;46.042;14.592;2023-11-18T07:45:39;5.22;;;4.05;;
74650;SDS011;63169;46.042;14.592;2023-11-18T07:48:08;3.40;;;1.52;;
74650;SDS011;63169;46.042;14.592;2023-11-18T07:50:42;4.72;;;4.25;;
74650;SDS011;63169;46.042;14.592;2023-11-18T07:53:09;4.80;;;2.10;;
74650;SDS011;63169;46.042;14.592;2023-11-18T07:55:35;11.60;;;7.55;;
74650;SDS011;63169;46.042;14.592;2023-11-18T07:58:04;6.43;;;5.18;;
74650;SDS011;63169;46.042;14.592;2023-11-18T08:00:44;6.45;;;2.75;;
74650;SDS011;63169;46.042;14.592;2023-11-18T08:03:10;11.45;;;8.02;;
74650;SDS011;63169;46.042;14.592;2023-11-18T08:05:42;10.00;;;6.70;;
74650;SDS011;63169;46.042;14.592;2023-11-18T08:08:09;10.38;;;8.10;;
74650;SDS011;63169;46.042;14.592;2023-11-18T08:10:38;10.07;;;6.82;;
74650;SDS011;63169;46.042;14.592;2023-11-18T08:13:04;8.82;;;7.53;;
74650;SDS011;63169;46.042;14.592;2023-11-18T08:15:32;17.23;;;11.85;;
74650;SDS011;63169;46.042;14.592;2023-11-18T08:17:57;14.45;;;11.50;;
74650;SDS011;63169;46.042;14.592;2023-11-18T08:20:22;16.27;;;10.90;;
74650;SDS011;63169;46.042;14.592;2023-11-18T08:22:50;15.18;;;10.50;;
74650;SDS011;63169;46.042;14.592;2023-11-18T08:25:15;11.80;;;8.95;;
74650;SDS011;63169;46.042;14.592;2023-11-18T08:30:08;11.50;;;8.63;;
74650;SDS011;63169;46.042;14.592;2023-11-18T08:32:37;11.07;;;7.25;;
74650;SDS011;63169;46.042;14.592;2023-11-18T08:35:04;12.77;;;8.02;;
74650;SDS011;63169;46.042;14.592;2023-11-18T08:37:32;11.52;;;8.18;;
74650;SDS011;63169;46.042;14.592;2023-11-18T08:40:00;12.48;;;7.82;;
74650;SDS011;63169;46.042;14.592;2023-11-18T08:42:31;9.73;;;6.50;;
74650;SDS011;63169;46.042;14.592;2023-11-18T08:44:59;13.60;;;7.07;;
74650;SDS011;63169;46.042;14.592;2023-11-18T08:47:25;12.95;;;6.88;;
74650;SDS011;63169;46.042;14.592;2023-11-18T08:49:52;10.93;;;7.85;;
74650;SDS011;63169;46.042;14.592;2023-11-18T08:52:17;12.45;;;8.18;;
74650;SDS011;63169;46.042;14.592;2023-11-18T08:54:43;14.73;;;9.52;;
74650;SDS011;63169;46.042;14.592;2023-11-18T08:57:28;11.10;;;5.40;;
74650;SDS011;63169;46.042;14.592;2023-11-18T09:00:14;16.75;;;7.43;;
74650;SDS011;63169;46.042;14.592;2023-11-18T09:03:00;10.68;;;4.07;;
74650;SDS011;63169;46.042;14.592;2023-11-18T09:07:56;11.20;;;7.22;;
74650;SDS011;63169;46.042;14.592;2023-11-18T09:10:27;13.75;;;8.10;;
74650;SDS011;63169;46.042;14.592;2023-11-18T09:12:56;8.40;;;6.47;;
74650;SDS011;63169;46.042;14.592;2023-11-18T09:15:22;7.97;;;4.25;;
74650;SDS011;63169;46.042;14.592;2023-11-18T09:17:48;10.07;;;4.93;;
74650;SDS011;63169;46.042;14.592;2023-11-18T09:20:14;11.75;;;4.82;;
74650;SDS011;63169;46.042;14.592;2023-11-18T09:22:45;8.23;;;5.88;;
74650;SDS011;63169;46.042;14.592;2023-11-18T09:25:11;8.88;;;3.65;;
74650;SDS011;63169;46.042;14.592;2023-11-18T09:27:36;10.60;;;6.95;;
74650;SDS011;63169;46.042;14.592;2023-11-18T09:30:04;9.45;;;7.47;;
74650;SDS011;63169;46.042;14.592;2023-11-18T09:32:39;10.70;;;7.80;;
74650;SDS011;63169;46.042;14.592;2023-11-18T09:35:07;7.00;;;6.10;;
74650;SDS011;63169;46.042;14.592;2023-11-18T09:37:38;11.68;;;6.30;;
74650;SDS011;63169;46.042;14.592;2023-11-18T09:40:08;7.28;;;6.00;;
74650;SDS011;63169;46.042;14.592;2023-11-18T09:42:37;5.53;;;2.60;;
74650;SDS011;63169;46.042;14.592;2023-11-18T09:45:04;7.40;;;5.28;;
74650;SDS011;63169;46.042;14.592;2023-11-18T09:47:38;10.27;;;6.07;;
74650;SDS011;63169;46.042;14.592;2023-11-18T09:50:08;7.40;;;6.30;;
74650;SDS011;63169;46.042;14.592;2023-11-18T09:52:35;12.13;;;6.18;;
74650;SDS011;63169;46.042;14.592;2023-11-18T09:55:08;10.15;;;6.32;;
74650;SDS011;63169;46.042;14.592;2023-11-18T09:57:40;7.97;;;5.85;;
74650;SDS011;63169;46.042;14.592;2023-11-18T10:00:11;9.40;;;6.38;;
74650;SDS011;63169;46.042;14.592;2023-11-18T10:03:07;6.68;;;5.13;;
74650;SDS011;63169;46.042;14.592;2023-11-18T10:05:35;7.65;;;6.65;;
74650;SDS011;63169;46.042;14.592;2023-11-18T10:08:02;6.15;;;4.47;;
74650;SDS011;63169;46.042;14.592;2023-11-18T10:10:30;6.25;;;5.15;;
74650;SDS011;63169;46.042;14.592;2023-11-18T10:13:01;5.55;;;4.55;;
74650;SDS011;63169;46.042;14.592;2023-11-18T10:15:29;8.77;;;6.50;;
74650;SDS011;63169;46.042;14.592;2023-11-18T10:17:56;6.55;;;5.15;;
74650;SDS011;63169;46.042;14.592;2023-11-18T10:25:56;5.30;;;4.68;;
74650;SDS011;63169;46.042;14.592;2023-11-18T10:28:25;7.70;;;4.57;;
74650;SDS011;63169;46.042;14.592;2023-11-18T10:33:23;4.35;;;3.80;;
74650;SDS011;63169;46.042;14.592;2023-11-18T10:35:55;4.38;;;4.05;;
74650;SDS011;63169;46.042;14.592;2023-11-18T10:38:21;5.57;;;4.25;;
74650;SDS011;63169;46.042;14.592;2023-11-18T10:40:53;5.00;;;3.15;;
74650;SDS011;63169;46.042;14.592;2023-11-18T10:43:20;6.53;;;2.13;;
74650;SDS011;63169;46.042;14.592;2023-11-18T10:45:49;5.43;;;4.25;;
74650;SDS011;63169;46.042;14.592;2023-11-18T10:48:17;4.70;;;3.72;;
74650;SDS011;63169;46.042;14.592;2023-11-18T10:50:48;4.05;;;1.88;;
74650;SDS011;63169;46.042;14.592;2023-11-18T10:53:15;4.13;;;3.72;;
74650;SDS011;63169;46.042;14.592;2023-11-18T10:55:42;3.58;;;2.10;;
74650;SDS011;63169;46.042;14.592;2023-11-18T10:58:08;8.65;;;5.03;;
74650;SDS011;63169;46.042;14.592;2023-11-18T11:01:07;8.18;;;5.03;;
74650;SDS011;63169;46.042;14.592;2023-11-18T11:03:26;6.00;;;4.38;;
74650;SDS011;63169;46.042;14.592;2023-11-18T11:05:55;5.32;;;3.38;;
74650;SDS011;63169;46.042;14.592;2023-11-18T11:08:20;7.63;;;2.50;;
74650;SDS011;63169;46.042;14.592;2023-11-18T11:10:46;6.10;;;2.75;;
74650;SDS011;63169;46.042;14.592;2023-11-18T11:13:14;8.63;;;4.03;;
74650;SDS011;63169;46.042;14.592;2023-11-18T11:15:43;8.63;;;5.00;;
74650;SDS011;63169;46.042;14.592;2023-11-18T11:18:14;9.02;;;4.75;;
74650;SDS011;63169;46.042;14.592;2023-11-18T11:20:53;8.77;;;4.70;;
74650;SDS011;63169;46.042;14.592;2023-11-18T11:23:27;9.43;;;5.22;;
74650;SDS011;63169;46.042;14.592;2023-11-18T11:31:16;5.20;;;4.32;;
74650;SDS011;63169;46.042;14.592;2023-11-18T11:34:20;4.78;;;4.13;;
74650;SDS011;63169;46.042;14.592;2023-11-18T11:36:48;4.80;;;3.72;;
74650;SDS011;63169;46.042;14.592;2023-11-18T11:39:16;6.45;;;3.40;;
74650;SDS011;63169;46.042;14.592;2023-11-18T11:41:50;3.90;;;1.20;;
74650;SDS011;63169;46.042;14.592;2023-11-18T11:44:17;18.30;;;5.32;;
74650;SDS011;63169;46.042;14.592;2023-11-18T11:46:45;5.35;;;3.20;;
74650;SDS011;63169;46.042;14.592;2023-11-18T11:49:18;4.38;;;2.83;;
74650;SDS011;63169;46.042;14.592;2023-11-18T11:54:38;7.38;;;3.67;;
74650;SDS011;63169;46.042;14.592;2023-11-18T11:57:10;9.95;;;4.75;;
74650;SDS011;63169;46.042;14.592;2023-11-18T12:02:12;2.92;;;2.28;;
74650;SDS011;63169;46.042;14.592;2023-11-18T12:04:44;3.50;;;2.78;;
74650;SDS011;63169;46.042;14.592;2023-11-18T12:07:09;5.35;;;4.85;;
74650;SDS011;63169;46.042;14.592;2023-11-18T12:09:35;4.97;;;3.83;;
74650;SDS011;63169;46.042;14.592;2023-11-18T12:12:05;6.82;;;6.15;;
74650;SDS011;63169;46.042;14.592;2023-11-18T12:14:48;8.68;;;4.72;;
74650;SDS011;63169;46.042;14.592;2023-11-18T12:23:09;6.68;;;4.82;;
74650;SDS011;63169;46.042;14.592;2023-11-18T12:25:45;7.38;;;2.55;;
74650;SDS011;63169;46.042;14.592;2023-11-18T12:28:17;6.55;;;4.35;;
74650;SDS011;63169;46.042;14.592;2023-11-18T12:30:47;6.72;;;4.50;;
74650;SDS011;63169;46.042;14.592;2023-11-18T12:33:24;7.50;;;5.72;;
74650;SDS011;63169;46.042;14.592;2023-11-18T12:42:01;8.00;;;4.68;;
74650;SDS011;63169;46.042;14.592;2023-11-18T12:44:35;6.28;;;3.15;;
74650;SDS011;63169;46.042;14.592;2023-11-18T12:49:46;6.90;;;4.88;;
74650;SDS011;63169;46.042;14.592;2023-11-18T12:52:19;6.22;;;4.78;;
74650;SDS011;63169;46.042;14.592;2023-11-18T12:54:46;5.07;;;4.28;;
74650;SDS011;63169;46.042;14.592;2023-11-18T12:57:16;8.23;;;7.43;;
74650;SDS011;63169;46.042;14.592;2023-11-18T13:00:03;5.13;;;4.47;;
74650;SDS011;63169;46.042;14.592;2023-11-18T13:02:31;6.15;;;5.13;;
74650;SDS011;63169;46.042;14.592;2023-11-18T13:04:57;6.82;;;4.22;;
74650;SDS011;63169;46.042;14.592;2023-11-18T13:07:22;8.18;;;2.88;;
74650;SDS011;63169;46.042;14.592;2023-11-18T13:09:50;7.45;;;2.67;;
74650;SDS011;63169;46.042;14.592;2023-11-18T13:12:15;5.45;;;4.63;;
74650;SDS011;63169;46.042;14.592;2023-11-18T13:14:42;9.10;;;6.22;;
74650;SDS011;63169;46.042;14.592;2023-11-18T13:17:08;7.57;;;4.40;;
74650;SDS011;63169;46.042;14.592;2023-11-18T13:19:36;6.82;;;6.10;;
74650;SDS011;63169;46.042;14.592;2023-11-18T13:22:02;9.68;;;7.82;;
74650;SDS011;63169;46.042;14.592;2023-11-18T13:24:29;6.00;;;4.78;;
74650;SDS011;63169;46.042;14.592;2023-11-18T13:26:58;6.65;;;5.90;;
74650;SDS011;63169;46.042;14.592;2023-11-18T13:29:28;6.63;;;5.60;;
74650;SDS011;63169;46.042;14.592;2023-11-18T13:31:54;5.88;;;5.30;;
74650;SDS011;63169;46.042;14.592;2023-11-18T13:34:21;6.03;;;4.70;;
74650;SDS011;63169;46.042;14.592;2023-11-18T13:36:47;6.68;;;4.53;;
74650;SDS011;63169;46.042;14.592;2023-11-18T13:39:16;7.78;;;6.00;;
74650;SDS011;63169;46.042;14.592;2023-11-18T13:41:43;8.68;;;5.78;;
74650;SDS011;63169;46.042;14.592;2023-11-18T13:44:10;7.47;;;4.63;;
74650;SDS011;63169;46.042;14.592;2023-11-18T13:46:38;9.48;;;5.28;;
74650;SDS011;63169;46.042;14.592;2023-11-18T13:49:05;9.07;;;6.22;;
74650;SDS011;63169;46.042;14.592;2023-11-18T13:51:31;7.45;;;5.70;;
74650;SDS011;63169;46.042;14.592;2023-11-18T13:53:58;9.20;;;6.18;;
74650;SDS011;63169;46.042;14.592;2023-11-18T13:56:24;6.68;;;5.55;;
74650;SDS011;63169;46.042;14.592;2023-11-18T13:58:52;7.40;;;6.07;;
74650;SDS011;63169;46.042;14.592;2023-11-18T14:01:18;11.90;;;7.07;;
74650;SDS011;63169;46.042;14.592;2023-11-18T14:03:43;18.98;;;9.10;;
74650;SDS011;63169;46.042;14.592;2023-11-18T14:06:09;20.48;;;10.27;;
74650;SDS011;63169;46.042;14.592;2023-11-18T14:08:38;12.85;;;7.93;;
74650;SDS011;63169;46.042;14.592;2023-11-18T14:11:04;15.43;;;9.68;;
74650;SDS011;63169;46.042;14.592;2023-11-18T14:13:31;14.13;;;9.60;;
74650;SDS011;63169;46.042;14.592;2023-11-18T14:15:58;10.70;;;7.25;;
74650;SDS011;63169;46.042;14.592;2023-11-18T14:20:49;12.38;;;8.98;;
74650;SDS011;63169;46.042;14.592;2023-11-18T14:23:15;7.15;;;5.93;;
74650;SDS011;63169;46.042;14.592;2023-11-18T14:25:41;6.50;;;4.70;;
74650;SDS011;63169;46.042;14.592;2023-11-18T14:28:06;11.35;;;6.97;;
74650;SDS011;63169;46.042;14.592;2023-11-18T14:30:34;12.48;;;7.40;;
74650;SDS011;63169;46.042;14.592;2023-11-18T14:32:59;10.25;;;6.18;;
74650;SDS011;63169;46.042;14.592;2023-11-18T14:35:25;6.18;;;2.97;;
74650;SDS011;63169;46.042;14.592;2023-11-18T14:37:51;11.38;;;6.50;;
74650;SDS011;63169;46.042;14.592;2023-11-18T14:40:16;10.07;;;5.63;;
74650;SDS011;63169;46.042;14.592;2023-11-18T14:42:45;6.97;;;5.07;;
74650;SDS011;63169;46.042;14.592;2023-11-18T14:45:12;9.35;;;5.18;;
74650;SDS011;63169;46.042;14.592;2023-11-18T14:47:39;10.30;;;5.85;;
74650;SDS011;63169;46.042;14.592;2023-11-18T14:50:05;5.03;;;2.20;;
74650;SDS011;63169;46.042;14.592;2023-11-18T14:52:40;8.40;;;4.15;;
74650;SDS011;63169;46.042;14.592;2023-11-18T14:55:06;8.93;;;5.50;;
74650;SDS011;63169;46.042;14.592;2023-11-18T14:57:37;10.77;;;4.97;;
74650;SDS011;63169;46.042;14.592;2023-11-18T15:00:06;7.50;;;5.10;;
74650;SDS011;63169;46.042;14.592;2023-11-18T15:02:43;8.82;;;6.32;;
74650;SDS011;63169;46.042;14.592;2023-11-18T15:05:09;12.52;;;6.25;;
74650;SDS011;63169;46.042;14.592;2023-11-18T15:07:34;15.45;;;5.53;;
74650;SDS011;63169;46.042;14.592;2023-11-18T15:10:00;11.05;;;6.75;;
74650;SDS011;63169;46.042;14.592;2023-11-18T15:12:25;13.77;;;8.38;;
74650;SDS011;63169;46.042;14.592;2023-11-18T15:14:51;19.00;;;9.73;;
74650;SDS011;63169;46.042;14.592;2023-11-18T15:17:16;19.00;;;6.45;;
74650;SDS011;63169;46.042;14.592;2023-11-18T15:19:42;7.90;;;5.75;;
74650;SDS011;63169;46.042;14.592;2023-11-18T15:22:07;10.60;;;4.88;;
74650;SDS011;63169;46.042;14.592;2023-11-18T15:24:32;12.60;;;5.47;;